Time;durP1;ratioP1;P1;durP2;ratioP2;P2;SDS_P1;SDS_P2;PMS_P1;PMS_P2;Temp;Humidity;BMP_temperature;BMP_pressure;BME280_temperature;BME280_humidity;BME280_pressure;Samples;Min_cycle;Max_cycle;Signal;HPM_P1;HPM_P2
2023/09/15 00:00:25;;;;;;;5.55;3.22;;;;;;;;;;4991560;28;20073;-66
2023/09/15 00:02:56;;;;;;;7.85;3.40;;;;;;;;;;4993203;28;20030;-66
2023/09/15 00:05:26;;;;;;;7.03;3.70;;;;;;;;;;4992839;28;20499;-67
2023/09/15 00:07:52;;;;;;;6.65;3.38;;;;;;;;;;4993170;28;20125;-67
2023/09/15 00:10:21;;;;;;;13.05;6.95;;;;;;;;;;4993104;28;20038;-67
2023/09/15 00:12:47;;;;;;;15.45;8.40;;;;;;;;;;4993108;28;20045;-66
2023/09/15 00:15:12;;;;;;;9.05;4.95;;;;;;;;;;4993001;28;20383;-65
2023/09/15 00:17:40;;;;;;;9.07;4.88;;;;;;;;;;4993041;28;20022;-66
2023/09/15 00:20:13;;;;;;;7.38;4.22;;;;;;;;;;4992656;28;20081;-66
2023/09/15 00:22:48;;;;;;;8.93;4.50;;;;;;;;;;4992971;28;20041;-67
2023/09/15 00:25:15;;;;;;;10.68;4.25;;;;;;;;;;4992627;28;20048;-66
2023/09/15 00:27:41;;;;;;;7.10;4.47;;;;;;;;;;4992963;28;20023;-66
2023/09/15 00:30:08;;;;;;;7.88;4.38;;;;;;;;;;4992868;28;20041;-67
2023/09/15 00:32:34;;;;;;;9.05;4.10;;;;;;;;;;4994503;28;20054;-66
2023/09/15 00:34:59;;;;;;;8.75;4.40;;;;;;;;;;4996568;28;20553;-66
2023/09/15 00:37:25;;;;;;;7.80;4.13;;;;;;;;;;4996583;28;20030;-66
2023/09/15 00:39:50;;;;;;;8.98;4.03;;;;;;;;;;4996422;28;20044;-66
2023/09/15 00:42:18;;;;;;;5.35;3.53;;;;;;;;;;4996523;28;20050;-67
2023/09/15 00:44:43;;;;;;;6.30;3.53;;;;;;;;;;4996449;28;20066;-67
2023/09/15 00:47:08;;;;;;;7.28;4.30;;;;;;;;;;4995978;28;20035;-66
2023/09/15 00:49:34;;;;;;;7.05;4.20;;;;;;;;;;4996342;28;20026;-67
2023/09/15 00:52:00;;;;;;;6.05;3.90;;;;;;;;;;4996270;28;20030;-66
2023/09/15 00:54:25;;;;;;;9.00;4.30;;;;;;;;;;4996217;28;20073;-66
2023/09/15 00:56:51;;;;;;;13.60;4.50;;;;;;;;;;4996227;28;20030;-66
2023/09/15 00:59:16;;;;;;;7.60;4.07;;;;;;;;;;4994790;28;20030;-66
2023/09/15 01:01:42;;;;;;;6.45;4.40;;;;;;;;;;4995828;28;20030;-66
2023/09/15 01:04:08;;;;;;;7.57;4.05;;;;;;;;;;4987641;28;20031;-67
2023/09/15 01:06:37;;;;;;;5.95;4.00;;;;;;;;;;4976633;28;20088;-67
2023/09/15 01:09:04;;;;;;;6.00;3.83;;;;;;;;;;4976540;28;20030;-66
2023/09/15 01:11:31;;;;;;;7.50;4.28;;;;;;;;;;4976420;28;20487;-66
2023/09/15 01:13:57;;;;;;;6.57;3.45;;;;;;;;;;4976380;28;20038;-66
2023/09/15 01:16:33;;;;;;;5.43;3.47;;;;;;;;;;4976212;28;20030;-66
2023/09/15 01:19:41;;;;;;;5.57;3.10;;;;;;;;;;4986300;28;20026;-65
2023/09/15 01:22:43;;;;;;;7.63;3.60;;;;;;;;;;4991074;28;20042;-67
2023/09/15 01:25:24;;;;;;;5.88;3.85;;;;;;;;;;4995515;28;20045;-66
2023/09/15 01:28:03;;;;;;;;;;;;;;;;;;4996229;28;20473;-66
2023/09/15 01:30:30;;;;;;;5.00;3.70;;;;;;;;;;4995329;28;19937;-67
2023/09/15 01:32:56;;;;;;;7.03;3.78;;;;;;;;;;4995715;28;20030;-66
2023/09/15 01:35:24;;;;;;;5.93;3.78;;;;;;;;;;4995571;28;20076;-66
2023/09/15 01:37:49;;;;;;;5.70;4.25;;;;;;;;;;4995478;28;20026;-67
2023/09/15 01:40:15;;;;;;;7.03;4.40;;;;;;;;;;4995421;28;20486;-66
2023/09/15 01:42:43;;;;;;;14.40;4.65;;;;;;;;;;4995201;28;20460;-66
2023/09/15 01:45:09;;;;;;;7.90;5.13;;;;;;;;;;4994327;28;20061;-65
2023/09/15 01:47:36;;;;;;;6.30;4.47;;;;;;;;;;4995375;28;20062;-66
2023/09/15 01:50:03;;;;;;;7.10;4.70;;;;;;;;;;4995273;28;20148;-65
2023/09/15 01:52:29;;;;;;;7.53;4.97;;;;;;;;;;4995122;28;20023;-65
2023/09/15 01:54:56;;;;;;;7.95;5.32;;;;;;;;;;4995249;28;20049;-65
2023/09/15 01:57:22;;;;;;;6.50;4.65;;;;;;;;;;4995057;28;20029;-66
2023/09/15 01:59:47;;;;;;;6.68;5.25;;;;;;;;;;4994801;28;20034;-67
2023/09/15 02:02:13;;;;;;;17.35;6.03;;;;;;;;;;4994873;28;20033;-66
2023/09/15 02:04:38;;;;;;;7.10;5.40;;;;;;;;;;4994906;28;20034;-67
2023/09/15 02:07:04;;;;;;;7.50;5.60;;;;;;;;;;4994968;28;20030;-66
2023/09/15 02:09:29;;;;;;;7.97;5.07;;;;;;;;;;4994914;28;20044;-66
2023/09/15 02:11:55;;;;;;;7.47;5.38;;;;;;;;;;4994757;28;20395;-66
2023/09/15 02:14:20;;;;;;;9.63;5.35;;;;;;;;;;4994433;28;20522;-67
2023/09/15 02:16:45;;;;;;;8.95;4.90;;;;;;;;;;4994666;28;20118;-66
2023/09/15 02:19:12;;;;;;;6.15;4.57;;;;;;;;;;4994415;28;20125;-66
2023/09/15 02:21:37;;;;;;;6.20;4.50;;;;;;;;;;4994699;28;20022;-66
2023/09/15 02:24:03;;;;;;;8.32;5.20;;;;;;;;;;4994100;28;20406;-67
2023/09/15 02:26:29;;;;;;;7.55;5.10;;;;;;;;;;4994541;28;20068;-67
2023/09/15 02:28:54;;;;;;;5.85;4.40;;;;;;;;;;4994124;28;20383;-67
2023/09/15 02:31:19;;;;;;;7.30;4.35;;;;;;;;;;4994454;28;20030;-66
2023/09/15 02:33:45;;;;;;;5.97;4.20;;;;;;;;;;4994406;28;20035;-66
2023/09/15 02:36:11;;;;;;;7.15;3.72;;;;;;;;;;4994328;28;20022;-66
2023/09/15 02:38:36;;;;;;;9.63;4.53;;;;;;;;;;4994391;28;20033;-66
2023/09/15 02:41:02;;;;;;;7.13;4.32;;;;;;;;;;4994166;28;20026;-66
2023/09/15 02:43:29;;;;;;;6.00;4.20;;;;;;;;;;4994080;28;20034;-66
2023/09/15 02:45:54;;;;;;;7.50;4.63;;;;;;;;;;4994102;28;20030;-66
2023/09/15 02:48:20;;;;;;;7.18;4.55;;;;;;;;;;4994282;28;20125;-66
2023/09/15 02:50:45;;;;;;;12.02;4.18;;;;;;;;;;4994129;28;20031;-66
2023/09/15 02:53:11;;;;;;;7.80;4.18;;;;;;;;;;4994172;28;20044;-67
2023/09/15 02:55:39;;;;;;;6.75;4.60;;;;;;;;;;4993747;28;20121;-66
2023/09/15 02:58:05;;;;;;;6.18;4.40;;;;;;;;;;4993762;28;20030;-67
2023/09/15 03:00:31;;;;;;;8.15;4.38;;;;;;;;;;4993876;28;20040;-66
2023/09/15 03:02:56;;;;;;;11.30;7.18;;;;;;;;;;4993861;28;20390;-65
2023/09/15 03:05:22;;;;;;;6.85;4.82;;;;;;;;;;4993839;28;20065;-67
2023/09/15 03:07:48;;;;;;;9.70;4.80;;;;;;;;;;4993891;28;20084;-67
2023/09/15 03:10:13;;;;;;;8.07;4.22;;;;;;;;;;4993743;28;20050;-66
2023/09/15 03:12:39;;;;;;;5.40;3.78;;;;;;;;;;4993544;28;20113;-66
2023/09/15 03:15:08;;;;;;;6.88;4.90;;;;;;;;;;4993618;28;20026;-66
2023/09/15 03:17:35;;;;;;;6.28;4.30;;;;;;;;;;4993611;28;20018;-66
2023/09/15 03:20:09;;;;;;;6.65;4.10;;;;;;;;;;4993442;28;20027;-66
2023/09/15 03:22:35;;;;;;;6.85;4.20;;;;;;;;;;4993372;28;20026;-66
2023/09/15 03:25:00;;;;;;;10.95;4.47;;;;;;;;;;4993076;28;20369;-66
2023/09/15 03:27:25;;;;;;;8.68;4.05;;;;;;;;;;4993383;28;20025;-66
2023/09/15 03:29:51;;;;;;;22.30;4.90;;;;;;;;;;4993433;28;20443;-66
2023/09/15 03:32:16;;;;;;;10.63;4.65;;;;;;;;;;4993561;28;20068;-65
2023/09/15 03:34:42;;;;;;;9.20;3.83;;;;;;;;;;4993415;28;20113;-66
2023/09/15 03:37:07;;;;;;;10.98;4.13;;;;;;;;;;4993469;28;20027;-66
2023/09/15 03:39:33;;;;;;;12.65;4.47;;;;;;;;;;4993230;28;20049;-66
2023/09/15 03:41:58;;;;;;;7.80;4.32;;;;;;;;;;4993257;28;20440;-66
2023/09/15 03:44:23;;;;;;;6.57;4.05;;;;;;;;;;4993338;28;20428;-67
2023/09/15 03:46:49;;;;;;;11.10;4.05;;;;;;;;;;4993436;28;20383;-67
2023/09/15 03:49:14;;;;;;;10.00;4.47;;;;;;;;;;4993391;28;20022;-67
2023/09/15 03:51:40;;;;;;;7.68;3.55;;;;;;;;;;4993271;28;20030;-66
2023/09/15 03:54:06;;;;;;;7.57;3.67;;;;;;;;;;4993483;28;20037;-66
2023/09/15 03:56:32;;;;;;;9.80;4.30;;;;;;;;;;4993043;28;20034;-67
2023/09/15 03:58:58;;;;;;;6.85;3.90;;;;;;;;;;4993213;28;20365;-67
2023/09/15 04:01:25;;;;;;;15.40;3.80;;;;;;;;;;4993236;28;20030;-67
2023/09/15 04:03:50;;;;;;;5.18;3.42;;;;;;;;;;4992985;28;20046;-67
2023/09/15 04:06:16;;;;;;;8.70;3.88;;;;;;;;;;4993098;28;20030;-66
2023/09/15 04:08:42;;;;;;;6.20;3.50;;;;;;;;;;4996718;28;20383;-66
2023/09/15 04:11:07;;;;;;;13.68;3.40;;;;;;;;;;4996816;28;20033;-65
2023/09/15 04:13:33;;;;;;;5.65;3.15;;;;;;;;;;4996936;28;20030;-65
2023/09/15 04:16:00;;;;;;;5.55;3.35;;;;;;;;;;4996893;28;20104;-66
2023/09/15 04:18:26;;;;;;;7.80;2.90;;;;;;;;;;4996896;28;20065;-66
2023/09/15 04:20:51;;;;;;;9.63;3.40;;;;;;;;;;4996865;28;20029;-66
2023/09/15 04:23:17;;;;;;;5.78;3.47;;;;;;;;;;4995461;28;20066;-66
2023/09/15 04:25:43;;;;;;;6.13;3.10;;;;;;;;;;4996187;28;20026;-66
2023/09/15 04:28:08;;;;;;;5.13;3.35;;;;;;;;;;4996829;28;20058;-66
2023/09/15 04:30:34;;;;;;;7.88;3.40;;;;;;;;;;4996760;28;20053;-66
2023/09/15 04:32:59;;;;;;;6.90;2.90;;;;;;;;;;4997024;28;20027;-66
2023/09/15 04:35:25;;;;;;;7.40;3.03;;;;;;;;;;4996595;28;20019;-66
2023/09/15 04:37:51;;;;;;;8.02;3.08;;;;;;;;;;4996606;28;20125;-65
2023/09/15 04:40:16;;;;;;;8.52;3.67;;;;;;;;;;4996150;28;20020;-66
2023/09/15 04:42:42;;;;;;;10.50;4.38;;;;;;;;;;4996571;28;20115;-65
2023/09/15 04:45:07;;;;;;;6.40;3.58;;;;;;;;;;4996452;28;20061;-66
2023/09/15 04:47:35;;;;;;;6.55;3.22;;;;;;;;;;4996420;28;20038;-66
2023/09/15 04:50:01;;;;;;;6.28;3.45;;;;;;;;;;4996337;28;20022;-66
2023/09/15 04:52:26;;;;;;;7.30;3.20;;;;;;;;;;4996325;28;20130;-66
2023/09/15 04:54:53;;;;;;;11.88;4.15;;;;;;;;;;4995959;28;20030;-67
2023/09/15 04:57:22;;;;;;;19.50;4.30;;;;;;;;;;4995919;28;20030;-66
2023/09/15 04:59:48;;;;;;;10.38;3.90;;;;;;;;;;4995958;28;20030;-66
2023/09/15 05:02:14;;;;;;;9.07;3.92;;;;;;;;;;4995978;28;20373;-66
2023/09/15 05:04:40;;;;;;;9.73;3.97;;;;;;;;;;4996006;28;20030;-66
2023/09/15 05:07:06;;;;;;;10.30;3.45;;;;;;;;;;4995944;28;20033;-64
2023/09/15 05:09:31;;;;;;;10.40;3.63;;;;;;;;;;4995672;28;20053;-66
2023/09/15 05:11:57;;;;;;;11.27;3.85;;;;;;;;;;4995698;28;20034;-67
2023/09/15 05:14:25;;;;;;;8.25;3.75;;;;;;;;;;4995714;28;20447;-66
2023/09/15 05:16:51;;;;;;;6.60;3.45;;;;;;;;;;4995654;28;20042;-66
2023/09/15 05:19:16;;;;;;;10.90;3.85;;;;;;;;;;4995240;28;20085;-66
2023/09/15 05:21:41;;;;;;;16.42;3.83;;;;;;;;;;4995828;28;20043;-67
2023/09/15 05:24:07;;;;;;;14.82;4.05;;;;;;;;;;4995153;28;20068;-65
2023/09/15 05:26:33;;;;;;;14.52;3.88;;;;;;;;;;4995768;28;20022;-67
2023/09/15 05:28:58;;;;;;;10.45;4.63;;;;;;;;;;4995698;28;20395;-66
2023/09/15 05:31:25;;;;;;;15.82;5.20;;;;;;;;;;4995660;28;20037;-66
2023/09/15 05:33:53;;;;;;;9.77;3.92;;;;;;;;;;4995588;28;20340;-66
2023/09/15 05:36:19;;;;;;;8.77;4.22;;;;;;;;;;4995407;28;20030;-66
2023/09/15 05:38:46;;;;;;;13.82;4.18;;;;;;;;;;4995240;28;20053;-66
2023/09/15 05:41:11;;;;;;;11.15;3.78;;;;;;;;;;4995457;28;20173;-66
2023/09/15 05:43:37;;;;;;;24.60;4.72;;;;;;;;;;4995401;28;20046;-65
2023/09/15 05:46:02;;;;;;;14.15;3.97;;;;;;;;;;4995191;28;20035;-66
2023/09/15 05:48:28;;;;;;;16.75;5.78;;;;;;;;;;4995192;28;20018;-66
2023/09/15 05:50:53;;;;;;;9.95;4.43;;;;;;;;;;4995175;28;20092;-66
2023/09/15 05:53:19;;;;;;;18.85;4.30;;;;;;;;;;4995002;28;20038;-67
2023/09/15 05:55:44;;;;;;;22.92;4.57;;;;;;;;;;4995023;28;20096;-64
2023/09/15 05:58:10;;;;;;;13.52;4.70;;;;;;;;;;4995113;28;20030;-66
2023/09/15 06:00:35;;;;;;;12.50;4.85;;;;;;;;;;4995146;28;20027;-66
2023/09/15 06:03:01;;;;;;;11.13;5.47;;;;;;;;;;4994719;28;20471;-67
2023/09/15 06:05:27;;;;;;;11.13;5.65;;;;;;;;;;4994853;28;20037;-66
2023/09/15 06:07:52;;;;;;;13.77;7.00;;;;;;;;;;4994666;28;20026;-67
2023/09/15 06:10:18;;;;;;;13.43;7.25;;;;;;;;;;4994875;28;20019;-65
2023/09/15 06:12:44;;;;;;;16.10;7.97;;;;;;;;;;4994688;28;20076;-64
2023/09/15 06:15:10;;;;;;;14.27;8.05;;;;;;;;;;4994728;28;20034;-66
2023/09/15 06:17:36;;;;;;;14.05;6.72;;;;;;;;;;4994745;28;20394;-66
2023/09/15 06:20:01;;;;;;;11.15;5.82;;;;;;;;;;4994506;28;20137;-67
2023/09/15 06:22:27;;;;;;;10.30;5.75;;;;;;;;;;4994266;28;20435;-66
2023/09/15 06:24:52;;;;;;;7.50;5.20;;;;;;;;;;4994436;28;20069;-67
2023/09/15 06:27:18;;;;;;;10.55;5.25;;;;;;;;;;4994516;28;20019;-66
2023/09/15 06:29:44;;;;;;;9.07;5.25;;;;;;;;;;4993528;28;20045;-67
2023/09/15 06:32:09;;;;;;;7.93;4.25;;;;;;;;;;4994398;28;20034;-66
2023/09/15 06:34:35;;;;;;;8.43;4.72;;;;;;;;;;4994233;28;20032;-67
2023/09/15 06:37:01;;;;;;;9.07;4.28;;;;;;;;;;4993968;28;20026;-66
2023/09/15 06:39:27;;;;;;;7.25;4.18;;;;;;;;;;4994187;28;20030;-67
2023/09/15 06:41:53;;;;;;;9.43;4.30;;;;;;;;;;4994258;28;20027;-66
2023/09/15 06:44:19;;;;;;;9.60;4.30;;;;;;;;;;4994223;28;20026;-67
2023/09/15 06:46:45;;;;;;;6.88;4.47;;;;;;;;;;4993711;28;20038;-67
2023/09/15 06:49:11;;;;;;;10.38;4.28;;;;;;;;;;4993866;28;20046;-65
2023/09/15 06:51:37;;;;;;;7.75;4.85;;;;;;;;;;4993813;28;20030;-65
2023/09/15 06:54:02;;;;;;;8.32;4.68;;;;;;;;;;4994065;28;20018;-66
2023/09/15 06:56:27;;;;;;;7.78;4.10;;;;;;;;;;4993903;28;20443;-66
2023/09/15 06:58:53;;;;;;;9.27;4.13;;;;;;;;;;4993809;28;20057;-66
2023/09/15 07:01:19;;;;;;;8.82;3.92;;;;;;;;;;4988843;28;20120;-66
2023/09/15 07:03:44;;;;;;;6.93;4.13;;;;;;;;;;4993463;28;20041;-66
2023/09/15 07:06:10;;;;;;;9.68;4.10;;;;;;;;;;4986822;28;20038;-66
2023/09/15 07:08:35;;;;;;;9.35;3.67;;;;;;;;;;4980995;28;20014;-66
2023/09/15 07:11:01;;;;;;;8.98;3.97;;;;;;;;;;4993527;28;20035;-65
2023/09/15 07:13:26;;;;;;;6.05;3.97;;;;;;;;;;4993502;28;20027;-66
2023/09/15 07:15:52;;;;;;;8.27;3.65;;;;;;;;;;4993044;28;20505;-66
2023/09/15 07:18:17;;;;;;;10.45;4.30;;;;;;;;;;4978606;28;20033;-66
2023/09/15 07:20:42;;;;;;;9.77;4.22;;;;;;;;;;4973681;28;20027;-65
2023/09/15 07:23:09;;;;;;;10.13;4.13;;;;;;;;;;4973838;28;20054;-66
2023/09/15 07:25:35;;;;;;;10.10;4.40;;;;;;;;;;4973671;28;20114;-67
2023/09/15 07:28:00;;;;;;;7.85;4.60;;;;;;;;;;4976775;28;20097;-66
2023/09/15 07:30:26;;;;;;;10.18;4.20;;;;;;;;;;4992936;28;20036;-66
2023/09/15 07:32:51;;;;;;;8.75;4.00;;;;;;;;;;4993084;28;20030;-66
2023/09/15 07:35:17;;;;;;;8.70;4.05;;;;;;;;;;4992978;28;20029;-66
2023/09/15 07:37:42;;;;;;;9.68;4.10;;;;;;;;;;4993007;28;20022;-66
2023/09/15 07:40:08;;;;;;;7.13;3.70;;;;;;;;;;4992881;28;20156;-66
2023/09/15 07:42:35;;;;;;;10.52;4.10;;;;;;;;;;4992873;28;20031;-66
2023/09/15 07:45:01;;;;;;;13.68;4.15;;;;;;;;;;4992981;28;20032;-67
2023/09/15 07:47:27;;;;;;;7.50;4.20;;;;;;;;;;4992832;28;20446;-66
2023/09/15 07:49:52;;;;;;;6.53;3.55;;;;;;;;;;4992909;28;20108;-66
2023/09/15 07:52:18;;;;;;;7.93;3.90;;;;;;;;;;4993097;28;20415;-67
2023/09/15 07:54:45;;;;;;;5.80;3.58;;;;;;;;;;4987287;28;20029;-66
2023/09/15 07:57:11;;;;;;;10.02;3.78;;;;;;;;;;4973621;28;20138;-67
2023/09/15 07:59:36;;;;;;;9.02;3.90;;;;;;;;;;4986338;28;20437;-67
2023/09/15 08:02:04;;;;;;;8.18;4.13;;;;;;;;;;4992770;28;20027;-67
2023/09/15 08:04:29;;;;;;;9.38;3.90;;;;;;;;;;4981363;28;20091;-67
2023/09/15 08:06:55;;;;;;;11.45;3.92;;;;;;;;;;4973460;28;20038;-67
2023/09/15 08:09:20;;;;;;;7.35;3.65;;;;;;;;;;4973541;28;20031;-65
2023/09/15 08:11:45;;;;;;;7.07;3.38;;;;;;;;;;4973339;28;20114;-67
2023/09/15 08:14:11;;;;;;;8.48;3.15;;;;;;;;;;4973573;28;20031;-65
2023/09/15 08:16:36;;;;;;;7.13;3.53;;;;;;;;;;4973172;28;20098;-65
2023/09/15 08:19:02;;;;;;;8.55;3.42;;;;;;;;;;4973438;28;20085;-65
2023/09/15 08:21:28;;;;;;;6.53;3.58;;;;;;;;;;4973491;28;20023;-65
2023/09/15 08:23:54;;;;;;;7.47;3.33;;;;;;;;;;4973055;28;20046;-65
2023/09/15 08:26:19;;;;;;;6.88;3.17;;;;;;;;;;4973310;28;20038;-65
2023/09/15 08:28:46;;;;;;;7.13;3.65;;;;;;;;;;4973322;28;20085;-65
2023/09/15 08:31:11;;;;;;;10.82;3.53;;;;;;;;;;4973169;28;20035;-66
2023/09/15 08:33:37;;;;;;;8.30;3.38;;;;;;;;;;4973057;28;20472;-66
2023/09/15 08:36:03;;;;;;;6.82;3.10;;;;;;;;;;4975716;28;20098;-66
2023/09/15 08:38:31;;;;;;;5.78;3.10;;;;;;;;;;4992032;28;20089;-66
2023/09/15 08:41:12;;;;;;;6.05;3.40;;;;;;;;;;4991488;28;20044;-65
2023/09/15 08:43:37;;;;;;;5.68;3.30;;;;;;;;;;4991446;28;20435;-65
2023/09/15 08:46:05;;;;;;;7.13;3.50;;;;;;;;;;4991526;28;20077;-66
2023/09/15 08:48:35;;;;;;;7.38;3.60;;;;;;;;;;4992440;28;20113;-66
2023/09/15 08:51:03;;;;;;;10.70;6.00;;;;;;;;;;4992556;28;20026;-66
2023/09/15 08:53:29;;;;;;;7.35;3.03;;;;;;;;;;4993902;28;20031;-66
2023/09/15 08:55:55;;;;;;;7.70;4.57;;;;;;;;;;4980911;28;20074;-66
2023/09/15 08:58:21;;;;;;;6.72;3.42;;;;;;;;;;4976442;28;20134;-66
2023/09/15 09:00:46;;;;;;;7.30;3.40;;;;;;;;;;4976126;28;20486;-66
2023/09/15 09:03:14;;;;;;;6.32;3.38;;;;;;;;;;4979630;28;20034;-66
2023/09/15 09:05:46;;;;;;;5.30;3.28;;;;;;;;;;4995706;28;20114;-66
2023/09/15 09:08:12;;;;;;;7.68;2.60;;;;;;;;;;4995845;28;20027;-66
2023/09/15 09:10:38;;;;;;;7.32;3.83;;;;;;;;;;4994890;28;20184;-67
2023/09/15 09:13:03;;;;;;;5.60;3.08;;;;;;;;;;4995837;28;20514;-66
2023/09/15 09:15:32;;;;;;;5.22;2.90;;;;;;;;;;4995262;28;20549;-67
2023/09/15 09:17:57;;;;;;;7.13;3.53;;;;;;;;;;4995684;28;20033;-66
2023/09/15 09:20:27;;;;;;;7.28;3.38;;;;;;;;;;4995541;28;20030;-66
2023/09/15 09:22:53;;;;;;;6.28;3.50;;;;;;;;;;4995241;28;20622;-66
2023/09/15 09:25:29;;;;;;;4.53;3.55;;;;;;;;;;4995351;28;20073;-66
2023/09/15 09:27:55;;;;;;;5.03;3.80;;;;;;;;;;4993227;28;20477;-65
2023/09/15 09:30:23;;;;;;;5.35;3.50;;;;;;;;;;4975677;28;20161;-65
2023/09/15 09:32:49;;;;;;;8.45;4.25;;;;;;;;;;4975972;28;20034;-66
2023/09/15 09:35:15;;;;;;;7.90;4.00;;;;;;;;;;4975777;28;20034;-65
2023/09/15 09:37:41;;;;;;;8.90;4.25;;;;;;;;;;4991219;28;20030;-66
2023/09/15 09:40:07;;;;;;;5.55;3.63;;;;;;;;;;4995141;28;20400;-66
2023/09/15 09:42:34;;;;;;;6.75;3.75;;;;;;;;;;4995196;28;20514;-66
2023/09/15 09:45:00;;;;;;;6.35;3.80;;;;;;;;;;4994934;28;20391;-66
2023/09/15 09:47:26;;;;;;;6.10;3.58;;;;;;;;;;4995112;28;20460;-67
2023/09/15 09:49:54;;;;;;;5.72;3.70;;;;;;;;;;4994801;28;20034;-67
2023/09/15 09:52:21;;;;;;;6.72;3.75;;;;;;;;;;4994971;28;20023;-65
2023/09/15 09:54:50;;;;;;;4.63;3.28;;;;;;;;;;4994870;28;20413;-66
2023/09/15 09:57:16;;;;;;;5.65;3.47;;;;;;;;;;4993805;28;20410;-65
2023/09/15 09:59:43;;;;;;;8.23;3.85;;;;;;;;;;4994398;28;20076;-66
2023/09/15 10:02:08;;;;;;;7.82;3.47;;;;;;;;;;4994948;28;20439;-66
2023/09/15 10:04:34;;;;;;;5.57;3.35;;;;;;;;;;4993363;28;20057;-66
2023/09/15 10:06:59;;;;;;;4.93;3.75;;;;;;;;;;4994809;28;20479;-66
2023/09/15 10:09:25;;;;;;;5.55;3.45;;;;;;;;;;4994422;28;20042;-65
2023/09/15 10:11:52;;;;;;;6.05;3.58;;;;;;;;;;4994526;28;20053;-66
2023/09/15 10:14:19;;;;;;;6.32;4.00;;;;;;;;;;4994424;28;20085;-65
2023/09/15 10:16:46;;;;;;;6.95;3.83;;;;;;;;;;4994473;28;20072;-66
2023/09/15 10:19:14;;;;;;;5.72;4.05;;;;;;;;;;4994414;28;20027;-66
2023/09/15 10:21:40;;;;;;;7.78;3.83;;;;;;;;;;4994329;28;20033;-66
2023/09/15 10:24:07;;;;;;;7.38;3.72;;;;;;;;;;4994125;28;20085;-66
2023/09/15 10:26:34;;;;;;;5.60;3.22;;;;;;;;;;4993904;28;20039;-65
2023/09/15 10:29:01;;;;;;;7.32;4.30;;;;;;;;;;4989065;28;20018;-66
2023/09/15 10:31:29;;;;;;;7.45;3.63;;;;;;;;;;4993362;28;20030;-66
2023/09/15 10:33:54;;;;;;;6.15;3.92;;;;;;;;;;4994114;28;20026;-66
2023/09/15 10:36:21;;;;;;;6.53;3.85;;;;;;;;;;4971468;28;20093;-66
2023/09/15 10:38:47;;;;;;;4.97;3.08;;;;;;;;;;4981430;28;20018;-65
2023/09/15 10:41:33;;;;;;;9.82;3.90;;;;;;;;;;4993906;28;20034;-66
2023/09/15 10:43:59;;;;;;;6.38;3.15;;;;;;;;;;4993636;28;20448;-63
2023/09/15 10:46:42;;;;;;;9.18;3.90;;;;;;;;;;4993843;28;20081;-66
2023/09/15 10:49:18;;;;;;;5.30;3.13;;;;;;;;;;4993946;28;20030;-67
2023/09/15 10:52:00;;;;;;;5.13;3.20;;;;;;;;;;4993817;28;20018;-67
2023/09/15 10:54:30;;;;;;;8.32;5.05;;;;;;;;;;4993687;28;20030;-66
2023/09/15 10:56:57;;;;;;;7.60;3.40;;;;;;;;;;4993263;28;20391;-65
2023/09/15 10:59:22;;;;;;;6.57;3.22;;;;;;;;;;4993254;28;20061;-66
2023/09/15 11:01:48;;;;;;;8.15;2.80;;;;;;;;;;4993607;28;20120;-67
2023/09/15 11:04:20;;;;;;;4.63;2.72;;;;;;;;;;4993419;28;20026;-65
2023/09/15 11:06:48;;;;;;;5.30;2.88;;;;;;;;;;4993637;28;20447;-66
2023/09/15 11:09:14;;;;;;;5.60;2.63;;;;;;;;;;4993519;28;20030;-66
2023/09/15 11:11:48;;;;;;;6.22;3.10;;;;;;;;;;4993214;28;20456;-66
2023/09/15 11:14:14;;;;;;;5.93;2.80;;;;;;;;;;4993503;28;20387;-66
2023/09/15 11:16:44;;;;;;;6.95;3.08;;;;;;;;;;4993129;28;20045;-66
2023/09/15 11:19:12;;;;;;;6.55;3.28;;;;;;;;;;4993461;28;20037;-67
2023/09/15 11:21:40;;;;;;;5.05;3.00;;;;;;;;;;4993322;28;20026;-66
2023/09/15 11:24:08;;;;;;;8.60;3.03;;;;;;;;;;4992989;28;20046;-66
2023/09/15 11:26:33;;;;;;;6.25;2.97;;;;;;;;;;4993127;28;20130;-66
2023/09/15 11:28:59;;;;;;;4.35;2.33;;;;;;;;;;4982141;28;20031;-66
2023/09/15 11:31:25;;;;;;;6.65;2.60;;;;;;;;;;4973865;28;20029;-66
2023/09/15 11:33:54;;;;;;;7.05;2.63;;;;;;;;;;4973840;28;20022;-66
2023/09/15 11:36:24;;;;;;;6.03;2.30;;;;;;;;;;4976993;28;20484;-66
2023/09/15 11:38:50;;;;;;;4.90;2.42;;;;;;;;;;4993183;28;20407;-66
2023/09/15 11:41:16;;;;;;;5.15;2.45;;;;;;;;;;4992916;28;20026;-66
2023/09/15 11:43:43;;;;;;;6.07;2.30;;;;;;;;;;4993055;28;20060;-67
2023/09/15 11:46:09;;;;;;;4.03;2.30;;;;;;;;;;4993192;28;20022;-67
2023/09/15 11:48:38;;;;;;;7.72;2.55;;;;;;;;;;4993004;28;20038;-66
2023/09/15 11:51:09;;;;;;;4.13;2.38;;;;;;;;;;4993137;28;20026;-66
2023/09/15 11:53:36;;;;;;;5.45;2.30;;;;;;;;;;4992663;28;20041;-66
2023/09/15 11:56:03;;;;;;;4.93;2.05;;;;;;;;;;4992857;28;20037;-66
2023/09/15 11:58:29;;;;;;;8.63;2.10;;;;;;;;;;4992818;28;20034;-66
2023/09/15 12:00:55;;;;;;;3.22;1.88;;;;;;;;;;4992951;28;20471;-66
2023/09/15 12:03:21;;;;;;;4.85;1.80;;;;;;;;;;4992660;28;20081;-66
2023/09/15 12:05:46;;;;;;;3.47;2.10;;;;;;;;;;4993002;28;20452;-66
2023/09/15 12:08:12;;;;;;;2.70;1.50;;;;;;;;;;4992852;28;20029;-66
2023/09/15 12:10:38;;;;;;;4.13;1.85;;;;;;;;;;4992395;28;20054;-66
2023/09/15 12:13:03;;;;;;;4.05;1.98;;;;;;;;;;4992776;28;20081;-66
2023/09/15 12:15:29;;;;;;;4.10;1.80;;;;;;;;;;4992683;28;20533;-66
2023/09/15 12:17:56;;;;;;;4.75;1.90;;;;;;;;;;4992811;28;20109;-65
2023/09/15 12:20:25;;;;;;;4.22;1.88;;;;;;;;;;4992574;28;20030;-66
2023/09/15 12:22:54;;;;;;;5.90;1.88;;;;;;;;;;4992601;28;20129;-66
2023/09/15 12:25:20;;;;;;;4.83;1.73;;;;;;;;;;4992425;28;20034;-65
2023/09/15 12:27:46;;;;;;;4.90;1.65;;;;;;;;;;4973634;28;20023;-67
2023/09/15 12:30:13;;;;;;;2.10;1.40;;;;;;;;;;4976751;28;20038;-66
2023/09/15 12:32:39;;;;;;;3.60;1.70;;;;;;;;;;4976873;28;20050;-67
2023/09/15 12:35:12;;;;;;;4.75;1.70;;;;;;;;;;4976817;28;20054;-66
2023/09/15 12:37:45;;;;;;;7.85;1.77;;;;;;;;;;4991902;28;20026;-66
2023/09/15 12:40:12;;;;;;;3.67;1.92;;;;;;;;;;4996159;28;20093;-66
2023/09/15 12:42:38;;;;;;;5.28;1.73;;;;;;;;;;4996169;28;20026;-66
2023/09/15 12:45:04;;;;;;;5.65;1.95;;;;;;;;;;4996322;28;20022;-67
2023/09/15 12:47:30;;;;;;;4.80;1.88;;;;;;;;;;4995783;28;20031;-67
2023/09/15 12:49:55;;;;;;;5.10;1.80;;;;;;;;;;4996183;28;20030;-67
2023/09/15 12:52:21;;;;;;;5.53;2.00;;;;;;;;;;4995539;28;20022;-67
2023/09/15 12:54:46;;;;;;;6.93;1.70;;;;;;;;;;4990131;28;20015;-66
2023/09/15 12:57:12;;;;;;;5.05;2.20;;;;;;;;;;4976604;28;20031;-66
2023/09/15 12:59:37;;;;;;;2.85;1.27;;;;;;;;;;4976176;28;20499;-67
2023/09/15 13:02:03;;;;;;;4.40;2.05;;;;;;;;;;4976417;28;20400;-66
2023/09/15 13:04:28;;;;;;;5.20;1.80;;;;;;;;;;4989818;28;20450;-67
2023/09/15 13:06:54;;;;;;;3.95;1.88;;;;;;;;;;4995651;28;20030;-66
2023/09/15 13:09:23;;;;;;;2.03;1.27;;;;;;;;;;4995307;28;20033;-66
2023/09/15 13:11:48;;;;;;;3.13;1.50;;;;;;;;;;4995293;28;20153;-67
2023/09/15 13:14:14;;;;;;;3.60;1.98;;;;;;;;;;4995657;28;20062;-67
2023/09/15 13:16:39;;;;;;;2.67;1.52;;;;;;;;;;4994737;28;20041;-66
2023/09/15 13:19:05;;;;;;;3.40;1.83;;;;;;;;;;4995583;28;20034;-67
2023/09/15 13:21:33;;;;;;;5.90;2.22;;;;;;;;;;4995269;28;20026;-67
2023/09/15 13:24:00;;;;;;;5.47;1.80;;;;;;;;;;4995194;28;20085;-67
2023/09/15 13:26:26;;;;;;;7.22;1.92;;;;;;;;;;4995524;28;20030;-67
2023/09/15 13:28:51;;;;;;;5.15;2.03;;;;;;;;;;4985380;28;20019;-67
2023/09/15 13:31:17;;;;;;;6.18;1.77;;;;;;;;;;4976000;28;20034;-67
2023/09/15 13:33:42;;;;;;;4.15;2.10;;;;;;;;;;4985609;28;20026;-66
2023/09/15 13:36:08;;;;;;;4.70;2.00;;;;;;;;;;4994918;28;20026;-67
2023/09/15 13:38:33;;;;;;;4.03;1.70;;;;;;;;;;4995045;28;20498;-65
2023/09/15 13:40:59;;;;;;;3.42;2.00;;;;;;;;;;4994982;28;20058;-67
2023/09/15 13:43:24;;;;;;;4.25;2.15;;;;;;;;;;4995116;28;20033;-67
2023/09/15 13:45:53;;;;;;;6.07;2.40;;;;;;;;;;4995155;28;20383;-67
2023/09/15 13:48:20;;;;;;;4.35;1.88;;;;;;;;;;4994841;28;20026;-65
2023/09/15 13:50:45;;;;;;;5.03;1.50;;;;;;;;;;4994710;28;20105;-67
2023/09/15 13:53:11;;;;;;;4.22;2.22;;;;;;;;;;4994817;28;20499;-65
2023/09/15 13:55:36;;;;;;;4.07;2.03;;;;;;;;;;4982447;28;20051;-65
2023/09/15 13:58:03;;;;;;;6.30;2.30;;;;;;;;;;4974436;28;20105;-66
2023/09/15 14:00:29;;;;;;;3.75;1.88;;;;;;;;;;4994588;28;20088;-67
2023/09/15 14:02:55;;;;;;;2.65;1.60;;;;;;;;;;4994393;28;20026;-66
2023/09/15 14:05:20;;;;;;;4.15;1.70;;;;;;;;;;4994335;28;20113;-67
2023/09/15 14:07:49;;;;;;;3.30;1.95;;;;;;;;;;4994740;28;20447;-67
2023/09/15 14:10:15;;;;;;;4.90;2.08;;;;;;;;;;4994618;28;20040;-67
2023/09/15 14:12:41;;;;;;;3.85;2.00;;;;;;;;;;4994476;28;20026;-66
2023/09/15 14:15:09;;;;;;;5.47;2.10;;;;;;;;;;4994379;28;20533;-66
2023/09/15 14:17:35;;;;;;;5.60;1.77;;;;;;;;;;4994439;28;20084;-67
2023/09/15 14:20:01;;;;;;;3.40;1.80;;;;;;;;;;4992826;28;20034;-67
2023/09/15 14:22:27;;;;;;;3.20;1.60;;;;;;;;;;4994284;28;20169;-67
2023/09/15 14:24:53;;;;;;;3.20;1.70;;;;;;;;;;4993996;28;20029;-67
2023/09/15 14:27:19;;;;;;;5.15;1.98;;;;;;;;;;4994089;28;20045;-66
2023/09/15 14:29:44;;;;;;;3.15;1.58;;;;;;;;;;4975882;28;20027;-68
2023/09/15 14:32:10;;;;;;;4.03;1.83;;;;;;;;;;4977035;28;20034;-67
2023/09/15 14:34:35;;;;;;;6.28;2.10;;;;;;;;;;4992371;28;20023;-65
2023/09/15 14:37:01;;;;;;;5.20;2.00;;;;;;;;;;4993852;28;20137;-67